createdAt,value
2022-10-01T00:03:34.188Z,10.78
2022-10-01T00:08:41.261Z,10.83
2022-10-01T00:13:44.105Z,10.83
2022-10-01T00:18:47.175Z,10.70
2022-10-01T00:24:04.733Z,10.62
2022-10-01T00:29:13.055Z,10.71
2022-10-01T00:34:15.803Z,10.76
2022-10-01T00:39:18.478Z,10.83
2022-10-01T00:44:36.165Z,10.79
2022-10-01T00:49:38.932Z,10.74
2022-10-01T00:54:57.709Z,10.72
2022-10-01T01:00:03.453Z,10.81
2022-10-01T01:05:08.915Z,10.78
2022-10-01T01:10:17.052Z,10.74
2022-10-01T01:15:31.167Z,10.79
2022-10-01T01:21:11.661Z,10.70
2022-10-01T01:26:42.353Z,10.66
2022-10-01T01:31:48.903Z,10.61
2022-10-01T01:37:00.269Z,10.56
2022-10-01T01:42:08.257Z,10.53
2022-10-01T01:47:10.959Z,10.50
2022-10-01T01:52:15.811Z,10.46
2022-10-01T01:57:19.517Z,10.41
2022-10-01T02:02:29.393Z,10.42
2022-10-01T02:07:57.332Z,10.45
2022-10-01T02:13:41.653Z,10.44
2022-10-01T02:19:23.035Z,10.56
2022-10-01T02:24:46.467Z,10.73
2022-10-01T02:29:49.175Z,10.77
2022-10-01T02:34:52.088Z,10.78
2022-10-01T02:39:55.422Z,10.84
2022-10-01T02:45:02.749Z,10.86
2022-10-01T02:50:06.300Z,10.65
2022-10-01T02:55:15.200Z,10.36
2022-10-01T03:00:21.486Z,10.21
2022-10-01T03:05:24.632Z,10.21
2022-10-01T03:10:27.304Z,10.16
2022-10-01T03:15:30.336Z,10.22
2022-10-01T03:20:33.068Z,10.25
2022-10-01T03:25:36.410Z,10.37
2022-10-01T03:30:39.116Z,10.44
2022-10-01T03:35:41.834Z,10.33
2022-10-01T03:40:44.508Z,10.25
2022-10-01T03:45:47.409Z,10.17
2022-10-01T03:50:58.011Z,10.20
2022-10-01T03:56:01.332Z,10.10
2022-10-01T04:01:04.108Z,9.99
2022-10-01T04:06:07.045Z,9.99
2022-10-01T04:11:09.841Z,10.02
2022-10-01T04:16:15.727Z,9.96
2022-10-01T04:21:18.510Z,9.87
2022-10-01T04:26:21.184Z,9.73
2022-10-01T04:31:26.898Z,9.58
2022-10-01T04:36:29.805Z,9.49
2022-10-01T04:41:32.643Z,9.30
2022-10-01T04:46:36.305Z,9.19
2022-10-01T04:51:39.065Z,9.13
2022-10-01T04:56:41.822Z,9.03
2022-10-01T05:01:45.142Z,8.95
2022-10-01T05:06:47.907Z,8.88
2022-10-01T05:11:52.173Z,8.98
2022-10-01T05:16:54.980Z,9.11
2022-10-01T05:21:57.744Z,9.25
2022-10-01T05:27:00.426Z,9.30
2022-10-01T05:32:03.149Z,9.37
2022-10-01T05:37:06.553Z,9.50
2022-10-01T05:42:09.382Z,9.61
2022-10-01T05:47:13.673Z,9.69
2022-10-01T05:52:16.818Z,9.84
2022-10-01T05:57:19.471Z,10.00
2022-10-01T06:02:22.218Z,10.10
2022-10-01T06:07:24.962Z,10.15
2022-10-01T06:12:27.709Z,10.22
2022-10-01T06:17:30.464Z,10.27
2022-10-01T06:22:33.241Z,10.37
2022-10-01T06:27:36.017Z,10.51
2022-10-01T06:32:38.744Z,10.69
2022-10-01T06:37:41.457Z,10.86
2022-10-01T06:42:53.748Z,10.89
2022-10-01T06:48:03.848Z,11.08
2022-10-01T06:53:06.629Z,11.32
2022-10-01T06:58:17.993Z,11.51
2022-10-01T07:03:21.555Z,11.61
2022-10-01T07:08:24.635Z,11.72
2022-10-01T07:13:27.401Z,11.81
2022-10-01T07:18:30.073Z,11.87
2022-10-01T07:23:33.551Z,12.03
2022-10-01T07:28:36.201Z,12.15
2022-10-01T07:33:39.602Z,12.14
2022-10-01T07:38:43.961Z,12.20
2022-10-01T07:43:46.829Z,12.18
2022-10-01T07:48:49.873Z,12.36
2022-10-01T07:53:52.701Z,12.46
2022-10-01T07:58:59.074Z,12.58
2022-10-01T08:04:21.822Z,12.70
2022-10-01T08:09:24.982Z,12.73
2022-10-01T08:14:28.720Z,12.73
2022-10-01T08:19:32.080Z,12.78
2022-10-01T08:24:36.394Z,12.64
2022-10-01T08:29:46.793Z,12.65
2022-10-01T08:34:54.500Z,12.73
2022-10-01T08:40:01.129Z,12.83
2022-10-01T08:45:10.647Z,12.93
2022-10-01T08:50:23.578Z,12.98
2022-10-01T08:55:28.225Z,12.98
2022-10-01T09:00:31.937Z,13.03
2022-10-01T09:06:20.893Z,13.27
2022-10-01T09:11:50.535Z,13.35
2022-10-01T09:17:10.879Z,13.51
2022-10-01T09:22:26.233Z,13.61
2022-10-01T09:27:28.973Z,13.64
2022-10-01T09:32:47.129Z,13.69
2022-10-01T09:38:23.283Z,13.77
2022-10-01T09:43:31.140Z,13.72
2022-10-01T09:48:58.494Z,13.70
2022-10-01T09:54:09.902Z,13.61
2022-10-01T09:59:22.853Z,13.49
2022-10-01T10:04:25.576Z,13.43
2022-10-01T10:09:33.277Z,13.39
2022-10-01T10:14:40.845Z,13.34
2022-10-01T10:19:51.583Z,13.34
2022-10-01T10:24:57.994Z,13.31
2022-10-01T10:30:08.873Z,13.28
2022-10-01T10:35:15.132Z,13.24
2022-10-01T10:40:21.508Z,13.18
2022-10-01T10:45:38.222Z,13.10
2022-10-01T10:50:44.644Z,13.10
2022-10-01T10:56:05.349Z,13.17
2022-10-01T11:01:29.127Z,13.26
2022-10-01T11:06:31.995Z,13.54
2022-10-01T11:11:47.149Z,13.79
2022-10-01T11:16:54.741Z,14.20
2022-10-01T11:22:32.753Z,14.43
2022-10-01T11:28:09.776Z,14.48
2022-10-01T11:33:25.768Z,14.62
2022-10-01T11:38:45.793Z,15.16
2022-10-01T11:43:55.857Z,15.31
2022-10-01T11:49:10.943Z,15.31
2022-10-01T11:54:15.872Z,15.51
2022-10-01T11:59:30.788Z,16.14
2022-10-01T12:04:40.388Z,16.36
2022-10-01T12:10:17.660Z,16.11
2022-10-01T12:15:33.594Z,16.08
2022-10-01T12:20:40.897Z,16.24
2022-10-01T12:25:52.698Z,16.36
2022-10-01T12:31:13.807Z,16.64
2022-10-01T12:36:36.003Z,18.44
2022-10-01T12:42:07.975Z,22.36
2022-10-01T12:47:36.488Z,25.99
2022-10-01T12:53:32.318Z,26.24
2022-10-01T12:58:53.796Z,23.77
2022-10-01T13:04:19.645Z,22.52
2022-10-01T13:09:54.037Z,21.47
2022-10-01T13:15:00.118Z,20.47
2022-10-01T13:20:27.533Z,19.74
2022-10-01T13:26:01.376Z,19.23
2022-10-01T13:31:15.428Z,18.53
2022-10-01T13:36:19.646Z,18.01
2022-10-01T13:41:26.235Z,17.64
2022-10-01T13:46:31.976Z,17.21
2022-10-01T13:51:36.573Z,16.86
2022-10-01T13:56:39.305Z,16.55
2022-10-01T14:01:42.293Z,16.17
2022-10-01T14:06:55.255Z,15.90
2022-10-01T14:12:26.823Z,15.61
2022-10-01T14:17:31.741Z,15.33
2022-10-01T14:23:10.892Z,15.12
2022-10-01T14:28:26.112Z,14.85
2022-10-01T14:33:37.960Z,14.67
2022-10-01T14:38:40.716Z,14.49
2022-10-01T14:43:43.386Z,14.27
2022-10-01T14:48:57.817Z,14.06
2022-10-01T14:54:00.735Z,13.89
2022-10-01T14:59:04.089Z,13.80
2022-10-01T15:04:15.076Z,13.64
2022-10-01T15:09:19.530Z,13.52
2022-10-01T15:14:24.263Z,13.45
2022-10-01T15:19:27.714Z,13.34
2022-10-01T15:24:39.482Z,13.26
2022-10-01T15:29:42.716Z,13.19
2022-10-01T15:34:53.374Z,13.14
2022-10-01T15:39:56.068Z,13.06
2022-10-01T15:45:08.046Z,12.97
2022-10-01T15:50:11.067Z,12.92
2022-10-01T15:55:17.067Z,12.84
2022-10-01T16:00:29.361Z,12.76
2022-10-01T16:05:38.466Z,12.71
2022-10-01T16:10:41.170Z,12.64
2022-10-01T16:15:43.860Z,12.55
2022-10-01T16:20:51.117Z,12.48
2022-10-01T16:25:53.980Z,12.47
2022-10-01T16:30:56.749Z,12.44
2022-10-01T16:36:10.939Z,12.36
2022-10-01T16:41:25.238Z,12.31
2022-10-01T16:46:28.548Z,12.28
2022-10-01T16:51:32.098Z,12.26
2022-10-01T16:56:35.898Z,12.23
2022-10-01T17:01:39.026Z,12.20
2022-10-01T17:06:41.709Z,12.18
2022-10-01T17:11:45.016Z,12.18
2022-10-01T17:16:50.710Z,12.18
2022-10-01T17:21:53.632Z,12.19
2022-10-01T17:26:56.490Z,12.24
2022-10-01T17:31:59.274Z,12.27
2022-10-01T17:37:01.977Z,12.19
2022-10-01T17:42:04.774Z,12.16
2022-10-01T17:47:07.490Z,12.13
2022-10-01T17:52:10.346Z,12.17
2022-10-01T17:57:13.892Z,12.10
2022-10-01T18:02:39.838Z,12.09
2022-10-01T18:07:39.919Z,12.14
2022-10-01T18:12:42.740Z,12.14
2022-10-01T18:17:51.387Z,12.11
2022-10-01T18:22:54.566Z,12.10
2022-10-01T18:27:57.329Z,12.15
2022-10-01T18:33:01.533Z,12.16
2022-10-01T18:38:26.629Z,12.14
2022-10-01T18:43:29.544Z,12.06
2022-10-01T18:48:53.721Z,12.02
2022-10-01T18:54:22.743Z,11.92
2022-10-01T18:59:35.682Z,11.74
2022-10-01T19:05:05.149Z,11.64
2022-10-01T19:10:26.553Z,11.60
2022-10-01T19:15:49.742Z,11.56
2022-10-01T19:21:39.400Z,11.46
2022-10-01T19:26:55.132Z,11.43
2022-10-01T19:32:06.093Z,11.45
2022-10-01T19:37:34.172Z,11.45
2022-10-01T19:42:38.701Z,11.35
2022-10-01T19:47:50.291Z,11.36
2022-10-01T19:52:56.119Z,11.37
2022-10-01T19:57:59.399Z,11.39
2022-10-01T20:03:26.425Z,11.31
2022-10-01T20:08:41.622Z,11.27
2022-10-01T20:14:51.591Z,11.29
2022-10-01T20:20:13.624Z,11.18
2022-10-01T20:25:39.375Z,11.02
2022-10-01T20:30:58.333Z,11.08
2022-10-01T20:36:13.724Z,11.14
2022-10-01T20:41:20.093Z,11.28
2022-10-01T20:46:52.592Z,11.31
2022-10-01T20:52:37.554Z,11.37
2022-10-01T20:57:50.897Z,11.45
2022-10-01T21:03:27.754Z,11.47
2022-10-01T21:09:00.931Z,11.49
2022-10-01T21:14:10.379Z,11.52
2022-10-01T21:19:32.016Z,11.57
2022-10-01T21:24:37.987Z,11.62
2022-10-01T21:30:17.006Z,11.65
2022-10-01T21:36:02.277Z,11.42
2022-10-01T21:41:14.831Z,11.28
2022-10-01T21:46:27.471Z,11.20
2022-10-01T21:52:04.204Z,11.16
2022-10-01T21:57:07.344Z,11.10
2022-10-01T22:02:48.799Z,11.08
2022-10-01T22:08:23.408Z,11.02
2022-10-01T22:13:37.049Z,10.99
2022-10-01T22:19:05.839Z,10.94
2022-10-01T22:24:10.985Z,10.89
2022-10-01T22:29:20.458Z,10.88
2022-10-01T22:34:28.309Z,10.86
2022-10-01T22:39:34.871Z,10.85
2022-10-01T22:44:37.583Z,10.85
2022-10-01T22:50:04.025Z,10.85
2022-10-01T22:55:25.004Z,10.82
2022-10-01T23:00:28.341Z,10.72
2022-10-01T23:05:57.265Z,10.65
2022-10-01T23:11:24.405Z,10.57
2022-10-01T23:16:39.840Z,10.55
2022-10-01T23:22:42.507Z,10.51
2022-10-01T23:27:51.357Z,10.50
2022-10-01T23:33:41.837Z,10.47
2022-10-01T23:39:18.757Z,10.42
2022-10-01T23:44:50.106Z,10.38
2022-10-01T23:49:55.532Z,10.41
2022-10-01T23:55:23.008Z,10.45
